Aérodrome :
LOGIN :

S'inscrire | Disclaimer

   EN    FR    IT 

 










Légende :    VFR   VFR Marginal   IFR   IFR Intensif   IFR Très Intensif
Visi : 
Plafond : 
>= 8 km
>= 3000ft
5 à 8 km
1000 à 3000 ft
1500m à 5 km
500 à 1000 ft
800 à 1500m
200 à 500 ft
< 800m
< 200 ft
Symboles :   Orages  Brouillard  Fortes neiges  Fortes précipitations  Vent > 20 kt
SIGMETs :   Divers  Orages  Givrage  Turbulence  Onde Orograph.  Cendres Volcan.







- Altitude de l'aérodrome : 288 ft
- Code IATA : BZZ


EGVN - RAF Brize Norton

DERNIER METAR :
  • 202350Z 27002KT 4000 BR SKC 08/07 Q1030 BECMG 1500

METARs EXPIRÉS :
  • 202250Z 26002KT 6000 BR FEW250 09/08 Q1030 WHT BECMG 3000 YLO1
  • 202150Z 29001KT CAVOK 10/09 Q1030 BLU BECMG 6000 BR WHT

TAF TAF EGVN
Valide du 21 à 00h jusqu'au 22 à 00h UTC


202233Z 2100/2124 25003KT 5000 BR NSC
BECMG 2100/2103 0300 FG VV///
PROB30 2107/2109 4000 BR SCT006
BECMG 2109/2112 9999 NSW FEW015
PROB30
TEMPO 2112/2115 SCT018
TEMPO 2115/2122 BKN020
PROB30
TEMPO 2118/2121 -RA SCT012
Pas de NOTAMs connus pour ce terrain.



MET'MAP, la Météo Aéronautique d'un coup d'oeil ! - Copyright ORBIFLY Décembre 2007 - Disclaimer

ORBIFLY MET'MAP TEAM :

Programmation & Développement : Alexandra Zaïnal
Conception & Développement : Baudouin d'Aumeries
Co-Programmation & Développement : Marc-Olivier Méhu
Soutien technique & logistique : Manuel Goepfert

Contact : metmap@orbifly.com




SOURCES & CREDITS :

   NOAA